Time;durP1;ratioP1;P1;durP2;ratioP2;P2;SDS_P1;SDS_P2;PMS_P1;PMS_P2;Temp;Humidity;BMP_temperature;BMP_pressure;BME280_temperature;BME280_humidity;BME280_pressure;Samples;Min_cycle;Max_cycle;Signal;HPM_P1;HPM_P2
2023/12/31 00:02:11;;;;;;;3.93;3.30;;;8.10;99.90;;;;;;5035055;28;20049;-82
2023/12/31 00:04:37;;;;;;;6.50;3.13;;;8.10;99.90;;;;;;5019668;28;20079;-82
2023/12/31 00:07:03;;;;;;;4.13;3.00;;;8.10;99.90;;;;;;5019902;28;20056;-82
2023/12/31 00:09:29;;;;;;;4.67;3.40;;;8.10;99.90;;;;;;5036596;28;20045;-82
2023/12/31 00:11:54;;;;;;;5.67;2.97;;;8.00;99.90;;;;;;5038891;28;20053;-81
2023/12/31 00:14:20;;;;;;;5.73;2.70;;;8.00;99.90;;;;;;5035464;28;20121;-80
2023/12/31 00:16:46;;;;;;;5.97;3.33;;;8.00;99.90;;;;;;5012643;28;20083;-81
2023/12/31 00:19:11;;;;;;;3.60;2.67;;;8.00;99.90;;;;;;5032839;28;20045;-80
2023/12/31 00:21:42;;;;;;;4.90;2.93;;;8.00;99.90;;;;;;5018569;28;20083;-82
2023/12/31 00:24:07;;;;;;;3.70;2.93;;;8.00;99.90;;;;;;5030610;28;20058;-81
2023/12/31 00:26:33;;;;;;;3.70;2.60;;;8.10;99.90;;;;;;5031357;28;20055;-79
2023/12/31 00:28:59;;;;;;;3.77;2.90;;;8.00;99.90;;;;;;5038260;28;20044;-80
2023/12/31 00:31:24;;;;;;;3.47;2.63;;;8.00;99.90;;;;;;5030097;28;20453;-81
2023/12/31 00:33:54;;;;;;;5.23;3.00;;;8.00;99.90;;;;;;5036719;28;20069;-82
2023/12/31 00:36:20;;;;;;;4.43;2.90;;;7.90;99.90;;;;;;5034693;28;20060;-81
2023/12/31 00:38:48;;;;;;;4.50;2.90;;;7.90;99.90;;;;;;5036559;28;20341;-81
2023/12/31 00:41:14;;;;;;;5.17;2.97;;;8.00;99.90;;;;;;5039302;28;20057;-82
2023/12/31 00:43:40;;;;;;;4.83;2.90;;;7.90;99.90;;;;;;5019948;28;20083;-81
2023/12/31 00:46:06;;;;;;;6.90;2.93;;;7.90;99.90;;;;;;5038570;28;20530;-82
2023/12/31 00:48:32;;;;;;;3.80;2.80;;;8.00;99.90;;;;;;5030889;28;20103;-82
2023/12/31 00:51:00;;;;;;;3.67;2.47;;;8.00;99.90;;;;;;5011128;28;20040;-81
2023/12/31 00:53:26;;;;;;;3.97;2.97;;;8.00;99.90;;;;;;5029917;28;20065;-83
2023/12/31 00:55:52;;;;;;;6.00;3.10;;;8.00;99.90;;;;;;5035816;28;20042;-82
2023/12/31 00:58:18;;;;;;;4.70;2.80;;;8.00;99.90;;;;;;5038240;28;20042;-81
2023/12/31 01:00:44;;;;;;;5.43;3.20;;;8.00;99.90;;;;;;5035306;28;20041;-82
2023/12/31 01:03:09;;;;;;;3.60;2.80;;;8.10;99.90;;;;;;5033485;28;20186;-81
2023/12/31 01:05:35;;;;;;;5.60;3.07;;;8.10;99.90;;;;;;5035743;28;20053;-82
2023/12/31 01:08:01;;;;;;;4.30;3.03;;;8.10;99.90;;;;;;5038794;28;20945;-81
2023/12/31 01:10:27;;;;;;;5.87;3.37;;;8.10;99.90;;;;;;5035646;28;20145;-81
2023/12/31 01:12:53;;;;;;;4.57;3.20;;;8.00;99.90;;;;;;5035811;28;20077;-81
2023/12/31 01:15:18;;;;;;;5.10;3.10;;;8.00;99.90;;;;;;5037163;28;20708;-81
2023/12/31 01:17:44;;;;;;;4.20;3.23;;;8.00;99.90;;;;;;5016861;28;20126;-81
2023/12/31 01:20:10;;;;;;;6.50;3.27;;;8.10;99.90;;;;;;5036471;28;20057;-81
2023/12/31 01:22:36;;;;;;;4.87;3.20;;;8.00;99.90;;;;;;5035208;28;20048;-81
2023/12/31 01:25:03;;;;;;;5.57;3.23;;;8.00;99.90;;;;;;5020056;28;20050;-82
2023/12/31 01:27:29;;;;;;;6.50;3.37;;;8.00;99.90;;;;;;5017003;28;20060;-79
2023/12/31 01:29:54;;;;;;;5.40;3.33;;;8.00;99.90;;;;;;5036476;28;20079;-82
2023/12/31 01:32:20;;;;;;;6.17;3.57;;;8.00;99.90;;;;;;5035044;28;20042;-81
2023/12/31 01:34:46;;;;;;;6.57;3.90;;;8.00;99.90;;;;;;5031633;28;20037;-82
2023/12/31 01:37:12;;;;;;;5.37;3.57;;;8.00;99.90;;;;;;5033065;28;20079;-81
2023/12/31 01:39:38;;;;;;;5.87;3.40;;;8.00;99.90;;;;;;5012655;28;20060;-83
2023/12/31 01:42:03;;;;;;;4.47;3.70;;;7.90;99.90;;;;;;5011270;28;20046;-82
2023/12/31 01:44:29;;;;;;;4.83;3.33;;;8.00;99.90;;;;;;5014025;28;20046;-82
2023/12/31 01:46:55;;;;;;;5.73;3.67;;;8.00;99.90;;;;;;5033560;28;20127;-83
2023/12/31 01:49:21;;;;;;;4.67;3.60;;;8.00;99.90;;;;;;5014997;28;20052;-82
2023/12/31 01:51:48;;;;;;;5.03;3.40;;;8.00;99.90;;;;;;5019507;28;20045;-82
2023/12/31 01:54:14;;;;;;;4.93;3.67;;;8.00;99.90;;;;;;5032873;28;20037;-81
2023/12/31 01:56:41;;;;;;;4.33;3.67;;;8.00;99.90;;;;;;5010953;28;20053;-82
2023/12/31 01:59:08;;;;;;;4.63;3.53;;;8.00;99.90;;;;;;5012306;28;20077;-83
2023/12/31 02:01:36;;;;;;;5.03;3.63;;;8.00;99.90;;;;;;5016361;28;20089;-82
2023/12/31 02:04:02;;;;;;;3.90;3.23;;;8.00;99.90;;;;;;5003525;28;20056;-82
2023/12/31 02:06:28;;;;;;;4.00;3.60;;;8.00;99.90;;;;;;5033593;28;20037;-81
2023/12/31 02:08:53;;;;;;;4.90;3.37;;;8.00;99.90;;;;;;5029732;28;20882;-81
2023/12/31 02:11:19;;;;;;;6.07;3.47;;;8.00;99.90;;;;;;5029199;28;20048;-82
2023/12/31 02:13:45;;;;;;;5.50;3.50;;;7.90;99.90;;;;;;5014822;28;20042;-82
2023/12/31 02:16:15;;;;;;;5.97;3.50;;;7.90;99.90;;;;;;5035766;28;20128;-83
2023/12/31 02:18:41;;;;;;;4.33;3.27;;;7.90;99.90;;;;;;5034267;28;20065;-84
2023/12/31 02:21:08;;;;;;;5.33;3.03;;;8.00;99.90;;;;;;5030102;28;20460;-82
2023/12/31 02:23:34;;;;;;;4.70;2.90;;;8.00;99.90;;;;;;5035640;28;20063;-83
2023/12/31 02:26:12;;;;;;;3.10;2.80;;;7.90;99.90;;;;;;5031625;28;20037;-82
2023/12/31 02:28:38;;;;;;;5.20;3.10;;;7.90;99.90;;;;;;5034999;28;20060;-84
2023/12/31 02:31:07;;;;;;;3.77;2.73;;;7.90;99.90;;;;;;5031660;28;20498;-83
2023/12/31 02:33:33;;;;;;;3.93;2.80;;;7.90;99.90;;;;;;5029492;28;20049;-83
2023/12/31 02:35:59;;;;;;;3.53;2.40;;;8.00;99.90;;;;;;5017893;28;20118;-81
2023/12/31 02:38:24;;;;;;;3.53;2.53;;;8.00;99.90;;;;;;5035872;28;20584;-81
2023/12/31 02:40:50;;;;;;;5.97;2.80;;;8.00;99.90;;;;;;5034746;28;20033;-82
2023/12/31 02:43:16;;;;;;;3.80;2.17;;;8.00;99.90;;;;;;5032639;28;20042;-80
2023/12/31 02:45:41;;;;;;;2.70;2.27;;;8.00;99.90;;;;;;5029171;28;21089;-83
2023/12/31 02:48:07;;;;;;;4.60;2.60;;;8.00;99.90;;;;;;5031042;28;20048;-81
2023/12/31 02:50:33;;;;;;;3.33;2.30;;;8.00;99.90;;;;;;5033776;28;20235;-82
2023/12/31 02:52:59;;;;;;;3.13;2.33;;;8.00;99.90;;;;;;5019402;28;20040;-82
2023/12/31 02:55:24;;;;;;;2.73;2.17;;;8.10;99.90;;;;;;5033856;28;20045;-81
2023/12/31 02:57:50;;;;;;;3.43;1.93;;;8.00;99.90;;;;;;5029376;28;20057;-82
2023/12/31 03:00:16;;;;;;;2.67;1.90;;;8.10;99.90;;;;;;5026449;28;20041;-82
2023/12/31 03:02:42;;;;;;;2.10;1.90;;;8.00;99.90;;;;;;5030201;28;20041;-81
2023/12/31 03:05:08;;;;;;;3.97;1.97;;;8.00;99.90;;;;;;5038434;28;20138;-81
2023/12/31 03:07:34;;;;;;;2.20;1.80;;;8.10;99.90;;;;;;5037703;28;20072;-81
2023/12/31 03:10:00;;;;;;;3.50;1.80;;;8.00;99.90;;;;;;5037554;28;20074;-81
2023/12/31 03:12:25;;;;;;;2.90;2.40;;;8.10;99.90;;;;;;4995623;28;20125;-81
2023/12/31 03:14:51;;;;;;;3.00;2.20;;;8.10;99.90;;;;;;5019380;28;20072;-82
2023/12/31 03:17:17;;;;;;;3.47;2.50;;;8.00;99.90;;;;;;5035230;28;20034;-82
2023/12/31 03:19:43;;;;;;;2.97;2.37;;;8.00;99.90;;;;;;5036963;28;20060;-82
2023/12/31 03:22:08;;;;;;;5.07;2.43;;;8.00;99.90;;;;;;4998256;28;20041;-82
2023/12/31 03:24:34;;;;;;;2.93;2.63;;;7.90;99.90;;;;;;5037419;28;20057;-82
2023/12/31 03:27:00;;;;;;;2.97;2.37;;;7.90;99.90;;;;;;5019619;28;20044;-82
2023/12/31 03:29:26;;;;;;;3.90;2.43;;;7.80;99.90;;;;;;5019722;28;20504;-81
2023/12/31 03:31:52;;;;;;;3.40;2.80;;;7.80;99.90;;;;;;5036823;28;20053;-84
2023/12/31 03:34:18;;;;;;;2.77;2.37;;;7.70;99.90;;;;;;4999488;28;20053;-84
2023/12/31 03:36:45;;;;;;;2.80;2.30;;;7.70;99.90;;;;;;5035749;28;20045;-82
2023/12/31 03:39:11;;;;;;;4.07;2.37;;;7.70;99.90;;;;;;5037151;28;20045;-83
2023/12/31 03:41:36;;;;;;;3.00;2.63;;;7.60;99.90;;;;;;5036019;28;20072;-82
2023/12/31 03:44:02;;;;;;;2.77;2.20;;;7.60;99.90;;;;;;5016570;28;20056;-82
2023/12/31 03:46:28;;;;;;;3.17;2.43;;;7.60;99.90;;;;;;5036081;28;20045;-83
2023/12/31 03:48:54;;;;;;;2.93;2.27;;;7.60;99.90;;;;;;5038105;28;20498;-83
2023/12/31 03:51:19;;;;;;;5.27;2.53;;;7.50;99.90;;;;;;5019854;28;20507;-82
2023/12/31 03:53:45;;;;;;;3.27;2.20;;;7.60;99.90;;;;;;5033100;28;20582;-82
2023/12/31 03:56:11;;;;;;;2.83;2.10;;;7.50;99.90;;;;;;5017769;28;20041;-83
2023/12/31 03:58:37;;;;;;;2.53;2.20;;;7.50;99.90;;;;;;5032840;28;20051;-82
2023/12/31 04:01:03;;;;;;;3.33;2.40;;;7.50;99.90;;;;;;5035571;28;20041;-83
2023/12/31 04:03:29;;;;;;;3.93;2.40;;;7.50;99.90;;;;;;5015260;28;20073;-83
2023/12/31 04:05:55;;;;;;;3.83;2.30;;;7.60;99.90;;;;;;5018864;28;20139;-82
2023/12/31 04:08:20;;;;;;;4.23;2.40;;;7.60;99.90;;;;;;5038036;28;20049;-82
2023/12/31 04:10:46;;;;;;;3.53;2.30;;;7.60;99.90;;;;;;5033295;28;20053;-82
2023/12/31 04:13:12;;;;;;;3.13;2.33;;;7.60;99.90;;;;;;5037681;28;20037;-81
2023/12/31 04:15:37;;;;;;;3.87;2.43;;;7.70;99.90;;;;;;5035185;28;20080;-81
2023/12/31 04:18:03;;;;;;;3.53;2.27;;;7.80;99.90;;;;;;5035962;28;20095;-82
2023/12/31 04:20:29;;;;;;;4.60;2.67;;;7.80;99.90;;;;;;5010294;28;20050;-82
2023/12/31 04:22:55;;;;;;;2.80;2.33;;;7.80;99.90;;;;;;5034911;28;20053;-81
2023/12/31 04:25:20;;;;;;;5.70;2.50;;;7.90;99.90;;;;;;5018939;28;20080;-82
2023/12/31 04:27:46;;;;;;;4.40;2.40;;;7.90;99.90;;;;;;5033239;28;20030;-82
2023/12/31 04:30:15;;;;;;;3.13;2.60;;;7.90;99.90;;;;;;5035366;28;20042;-78
2023/12/31 04:32:40;;;;;;;4.13;2.37;;;7.90;99.90;;;;;;5034747;28;20092;-81
2023/12/31 04:35:06;;;;;;;3.87;2.60;;;7.90;99.90;;;;;;5034553;28;20068;-81
2023/12/31 04:37:32;;;;;;;3.83;2.50;;;7.90;99.90;;;;;;5037937;28;20034;-81
2023/12/31 04:39:58;;;;;;;3.47;2.83;;;7.90;99.90;;;;;;5017283;28;20098;-82
2023/12/31 04:42:24;;;;;;;4.37;2.60;;;8.00;99.90;;;;;;5021744;28;20033;-82
2023/12/31 04:44:49;;;;;;;5.17;2.60;;;8.00;99.90;;;;;;5014046;28;20066;-79
2023/12/31 04:47:15;;;;;;;3.63;2.73;;;7.90;99.90;;;;;;5036723;28;20515;-83
2023/12/31 04:49:41;;;;;;;4.27;2.43;;;8.00;99.90;;;;;;5035724;28;20753;-82
2023/12/31 04:52:08;;;;;;;3.50;2.80;;;8.00;99.90;;;;;;5033010;28;20029;-83
2023/12/31 04:54:34;;;;;;;4.67;2.57;;;7.90;99.90;;;;;;5015771;28;20029;-83
2023/12/31 04:57:00;;;;;;;5.63;3.20;;;7.90;99.90;;;;;;5030872;28;20033;-83
2023/12/31 04:59:26;;;;;;;3.23;2.90;;;7.90;99.90;;;;;;5034281;28;20053;-84
2023/12/31 05:01:52;;;;;;;3.23;2.80;;;7.90;99.90;;;;;;5034052;28;20124;-83
2023/12/31 05:04:19;;;;;;;4.77;2.80;;;7.90;99.90;;;;;;5015755;28;20056;-82
2023/12/31 05:06:45;;;;;;;4.53;2.90;;;7.90;99.90;;;;;;5018703;28;20826;-82
2023/12/31 05:09:11;;;;;;;5.37;3.13;;;7.90;99.90;;;;;;5035088;28;20095;-82
2023/12/31 05:11:37;;;;;;;5.27;3.10;;;7.90;99.90;;;;;;5036021;28;20084;-82
2023/12/31 05:14:04;;;;;;;3.37;2.93;;;7.90;99.90;;;;;;5038304;28;20126;-81
2023/12/31 05:16:33;;;;;;;4.80;2.90;;;7.90;99.90;;;;;;5038717;28;20052;-82
2023/12/31 05:19:00;;;;;;;3.33;2.90;;;7.90;99.90;;;;;;5033785;28;20057;-82
2023/12/31 05:21:26;;;;;;;3.30;3.00;;;8.00;99.90;;;;;;5036296;28;20116;-82
2023/12/31 05:23:52;;;;;;;4.00;2.97;;;8.00;99.90;;;;;;5033023;28;20068;-83
2023/12/31 05:26:18;;;;;;;4.53;2.97;;;7.90;99.90;;;;;;5035382;28;20037;-82
2023/12/31 05:28:44;;;;;;;3.80;3.37;;;7.90;99.90;;;;;;5037224;28;20042;-82
2023/12/31 05:31:12;;;;;;;5.60;3.47;;;8.00;99.90;;;;;;5018855;28;20439;-84
2023/12/31 05:33:38;;;;;;;5.03;3.37;;;8.00;99.90;;;;;;5035706;28;20072;-82
2023/12/31 05:36:04;;;;;;;5.97;3.20;;;8.00;99.90;;;;;;5034956;28;20049;-82
2023/12/31 05:38:29;;;;;;;4.30;3.43;;;8.00;99.90;;;;;;5037574;28;20530;-82
2023/12/31 05:40:56;;;;;;;4.47;3.10;;;8.00;99.90;;;;;;5031041;28;20041;-82
2023/12/31 05:43:21;;;;;;;4.43;3.10;;;8.00;99.90;;;;;;5031014;28;20576;-82
2023/12/31 05:45:47;;;;;;;4.40;3.33;;;8.10;99.90;;;;;;5034146;28;20080;-83
2023/12/31 05:48:13;;;;;;;4.33;3.10;;;8.10;99.90;;;;;;5033284;28;20548;-82
2023/12/31 05:50:39;;;;;;;3.93;3.20;;;8.10;99.90;;;;;;5034921;28;20056;-82
2023/12/31 05:53:05;;;;;;;3.67;3.20;;;8.10;99.90;;;;;;5031225;28;20030;-73
2023/12/31 05:55:31;;;;;;;3.83;3.30;;;8.10;99.90;;;;;;5036181;28;20409;-83
2023/12/31 05:57:57;;;;;;;4.40;3.00;;;8.10;99.90;;;;;;5014952;28;20420;-82
2023/12/31 06:00:23;;;;;;;4.47;3.30;;;8.10;99.90;;;;;;5035331;28;20072;-82
2023/12/31 06:02:49;;;;;;;4.10;3.30;;;8.10;99.90;;;;;;5032745;28;20045;-81
2023/12/31 06:05:16;;;;;;;4.63;3.40;;;8.10;99.90;;;;;;5030901;28;20104;-83
2023/12/31 06:07:41;;;;;;;3.87;3.17;;;8.10;99.90;;;;;;5035570;28;20045;-81
2023/12/31 06:10:07;;;;;;;5.30;3.47;;;8.00;99.90;;;;;;5005139;28;20048;-82
2023/12/31 06:12:33;;;;;;;4.17;3.20;;;8.10;99.90;;;;;;5028795;28;20033;-82
2023/12/31 06:14:59;;;;;;;6.53;3.60;;;8.00;99.90;;;;;;5035880;28;20021;-82
2023/12/31 06:17:26;;;;;;;4.93;3.80;;;8.10;99.90;;;;;;5031166;28;20132;-82
2023/12/31 06:19:52;;;;;;;3.67;3.03;;;8.10;99.90;;;;;;5031935;28;20081;-82
2023/12/31 06:22:18;;;;;;;3.63;3.00;;;8.10;99.90;;;;;;5032754;28;20665;-82
2023/12/31 06:24:44;;;;;;;4.20;3.33;;;8.10;99.90;;;;;;5034583;28;20100;-82
2023/12/31 06:27:09;;;;;;;3.20;2.77;;;8.10;99.90;;;;;;5030272;28;20033;-83
2023/12/31 06:29:35;;;;;;;3.30;3.00;;;8.20;99.90;;;;;;5009763;28;20073;-83
2023/12/31 06:32:01;;;;;;;4.40;3.20;;;8.20;99.90;;;;;;5015598;28;20092;-84
2023/12/31 06:34:26;;;;;;;4.20;3.00;;;8.20;99.90;;;;;;5014575;28;20037;-82
2023/12/31 06:36:52;;;;;;;4.63;3.30;;;8.30;99.90;;;;;;5017341;28;20755;-83
2023/12/31 06:39:18;;;;;;;3.20;2.80;;;8.30;99.90;;;;;;5028996;28;20042;-84
2023/12/31 06:41:44;;;;;;;4.23;2.83;;;8.30;99.90;;;;;;5026457;28;20065;-84
2023/12/31 06:44:09;;;;;;;4.20;2.67;;;8.30;99.90;;;;;;5024924;28;20045;-84
2023/12/31 06:46:35;;;;;;;3.40;2.63;;;8.30;99.90;;;;;;5033369;28;20088;-81
2023/12/31 06:49:01;;;;;;;3.47;2.80;;;8.40;99.90;;;;;;5037720;28;20044;-81
2023/12/31 06:51:26;;;;;;;4.50;3.17;;;8.50;99.90;;;;;;5035426;28;20116;-82
2023/12/31 06:53:52;;;;;;;4.60;2.63;;;8.50;99.90;;;;;;5034002;28;20864;-82
2023/12/31 06:56:18;;;;;;;3.97;2.80;;;8.40;99.90;;;;;;5029089;28;20045;-83
2023/12/31 06:58:44;;;;;;;5.37;3.33;;;8.50;99.90;;;;;;5031523;28;20046;-83
2023/12/31 07:01:09;;;;;;;3.63;3.07;;;8.40;99.90;;;;;;5027081;28;20064;-81
2023/12/31 07:03:35;;;;;;;3.67;3.00;;;8.40;99.90;;;;;;5035501;28;20045;-75
2023/12/31 07:06:01;;;;;;;3.57;3.13;;;8.50;99.90;;;;;;5027395;28;20054;-83
2023/12/31 07:08:27;;;;;;;3.70;2.87;;;8.50;99.90;;;;;;4993518;28;20038;-74
2023/12/31 07:10:54;;;;;;;4.57;3.00;;;8.50;99.90;;;;;;5034466;28;20049;-75
2023/12/31 07:13:20;;;;;;;3.77;3.00;;;8.50;99.90;;;;;;5012584;28;20041;-76
2023/12/31 07:15:45;;;;;;;3.50;3.07;;;8.50;99.90;;;;;;5037017;28;20714;-77
2023/12/31 07:18:11;;;;;;;3.67;3.00;;;8.60;99.90;;;;;;5032761;28;20067;-77
2023/12/31 07:20:37;;;;;;;3.40;3.10;;;8.60;99.90;;;;;;5015294;28;20451;-74
2023/12/31 07:23:04;;;;;;;4.17;3.00;;;8.50;99.90;;;;;;5034094;28;20084;-81
2023/12/31 07:25:31;;;;;;;3.37;3.00;;;8.60;99.90;;;;;;5030584;28;20103;-81
2023/12/31 07:27:57;;;;;;;4.20;2.73;;;8.50;99.90;;;;;;5011876;28;20083;-81
2023/12/31 07:30:23;;;;;;;4.53;3.20;;;8.50;99.90;;;;;;5031663;28;20045;-82
2023/12/31 07:32:49;;;;;;;4.17;3.27;;;8.50;99.90;;;;;;5029540;28;20093;-81
2023/12/31 07:35:15;;;;;;;4.17;3.07;;;8.50;99.90;;;;;;5013101;28;20366;-81
2023/12/31 07:37:41;;;;;;;3.70;2.90;;;8.50;99.90;;;;;;5032950;28;20037;-78
2023/12/31 07:40:08;;;;;;;4.50;2.77;;;8.50;99.90;;;;;;5028845;28;20048;-73
2023/12/31 07:42:35;;;;;;;6.10;3.33;;;8.50;99.90;;;;;;5036008;28;20041;-73
2023/12/31 07:45:01;;;;;;;3.53;3.17;;;8.60;99.90;;;;;;5029258;28;20045;-73
2023/12/31 07:47:27;;;;;;;5.13;3.13;;;8.50;99.90;;;;;;5015544;28;20084;-73
2023/12/31 07:49:53;;;;;;;4.00;3.00;;;8.50;99.90;;;;;;5009057;28;20058;-74
2023/12/31 07:52:18;;;;;;;5.13;3.70;;;8.60;99.90;;;;;;5038319;28;20041;-75
2023/12/31 07:54:44;;;;;;;3.83;2.97;;;8.60;99.90;;;;;;5033757;28;20045;-79
2023/12/31 07:57:10;;;;;;;3.73;2.63;;;8.60;99.90;;;;;;5028058;28;20133;-78
2023/12/31 07:59:35;;;;;;;5.27;3.17;;;8.60;99.90;;;;;;5035899;28;20038;-80
2023/12/31 08:02:03;;;;;;;2.97;2.50;;;8.70;99.90;;;;;;5034150;28;20079;-81
2023/12/31 08:04:29;;;;;;;4.37;3.00;;;8.70;99.90;;;;;;5018586;28;20104;-81
2023/12/31 08:06:54;;;;;;;3.40;3.10;;;8.70;99.90;;;;;;5015556;28;20077;-81
2023/12/31 08:09:20;;;;;;;3.23;2.80;;;8.70;99.90;;;;;;5038278;28;20475;-79
2023/12/31 08:11:46;;;;;;;3.03;2.70;;;8.70;99.90;;;;;;5035376;28;20038;-85
2023/12/31 08:14:12;;;;;;;3.67;2.67;;;8.70;99.90;;;;;;5016670;28;20079;-85
2023/12/31 08:16:38;;;;;;;3.00;2.70;;;8.60;99.90;;;;;;5036329;28;20041;-81
2023/12/31 08:19:04;;;;;;;4.73;2.90;;;8.70;99.90;;;;;;5053596;28;20060;-81
2023/12/31 08:21:31;;;;;;;3.30;2.67;;;8.70;99.90;;;;;;5042432;28;20112;-80
2023/12/31 08:23:58;;;;;;;5.37;3.00;;;8.70;99.90;;;;;;5015816;28;20045;-80
2023/12/31 08:26:25;;;;;;;4.57;2.80;;;8.70;99.90;;;;;;5009615;28;20084;-79
2023/12/31 08:28:50;;;;;;;2.93;2.60;;;8.70;99.90;;;;;;5018183;28;20045;-81
2023/12/31 08:31:17;;;;;;;3.77;2.70;;;8.70;99.90;;;;;;5036447;28;20105;-80
2023/12/31 08:33:43;;;;;;;2.90;2.43;;;8.70;99.90;;;;;;5034923;28;20071;-80
2023/12/31 08:36:09;;;;;;;3.13;2.83;;;8.70;99.90;;;;;;5033629;28;20042;-80
2023/12/31 08:38:35;;;;;;;2.87;2.57;;;8.70;99.90;;;;;;5031248;28;20080;-80
2023/12/31 08:41:01;;;;;;;4.17;2.50;;;8.80;99.90;;;;;;5021828;28;20049;-80
2023/12/31 08:43:27;;;;;;;2.73;2.50;;;8.80;99.90;;;;;;5034230;28;20056;-80
2023/12/31 08:45:53;;;;;;;3.47;2.80;;;8.80;99.90;;;;;;5042789;28;20103;-80
2023/12/31 08:48:20;;;;;;;4.43;2.73;;;8.90;99.90;;;;;;5041436;28;20060;-79
2023/12/31 08:50:46;;;;;;;3.57;2.80;;;8.90;99.90;;;;;;5051653;28;20048;-80
2023/12/31 08:53:12;;;;;;;3.47;2.73;;;8.90;99.90;;;;;;5043515;28;20076;-79
2023/12/31 08:55:37;;;;;;;2.90;2.60;;;9.00;99.90;;;;;;5042009;28;20073;-80
2023/12/31 08:58:03;;;;;;;3.60;2.70;;;9.10;99.90;;;;;;5041639;28;20049;-80
2023/12/31 09:00:32;;;;;;;4.50;3.40;;;9.10;99.90;;;;;;5038709;28;20069;-80
2023/12/31 09:02:59;;;;;;;2.87;2.53;;;9.10;99.90;;;;;;5042818;28;20041;-80
2023/12/31 09:05:25;;;;;;;3.97;2.93;;;9.10;99.90;;;;;;5042687;28;20064;-80
2023/12/31 09:07:50;;;;;;;3.03;2.60;;;9.10;99.90;;;;;;5047000;28;20057;-81
2023/12/31 09:10:16;;;;;;;2.97;2.43;;;9.10;99.90;;;;;;5042557;28;20047;-80
2023/12/31 09:12:42;;;;;;;3.17;2.80;;;9.10;99.90;;;;;;5038206;28;20102;-79
2023/12/31 09:15:08;;;;;;;2.60;2.40;;;9.10;99.90;;;;;;5040103;28;20052;-80
2023/12/31 09:17:37;;;;;;;3.03;2.73;;;9.10;99.90;;;;;;5008612;28;20042;-83
2023/12/31 09:20:05;;;;;;;3.07;2.67;;;9.10;99.90;;;;;;5040366;28;20045;-80
2023/12/31 09:22:34;;;;;;;3.27;2.70;;;9.10;99.90;;;;;;5034758;28;20456;-81
2023/12/31 09:25:00;;;;;;;3.73;3.20;;;9.20;99.90;;;;;;5006290;28;20487;-80
2023/12/31 09:27:26;;;;;;;3.30;2.80;;;9.20;99.90;;;;;;5042253;28;20055;-81
2023/12/31 09:29:52;;;;;;;3.27;2.80;;;9.20;99.90;;;;;;5038825;28;20048;-81
2023/12/31 09:32:17;;;;;;;3.10;2.80;;;9.20;99.90;;;;;;5034537;28;20037;-80
2023/12/31 09:34:43;;;;;;;3.43;2.90;;;9.20;99.90;;;;;;5001815;28;21044;-81
2023/12/31 09:37:09;;;;;;;3.50;2.80;;;9.20;99.90;;;;;;5022417;28;20041;-81
2023/12/31 09:39:35;;;;;;;4.57;2.97;;;9.30;99.90;;;;;;5028668;28;20045;-80
2023/12/31 09:42:10;;;;;;;4.13;2.97;;;9.20;99.90;;;;;;5034432;28;20151;-81
2023/12/31 09:44:36;;;;;;;3.00;2.70;;;9.30;99.90;;;;;;5015471;28;20341;-80
2023/12/31 09:47:07;;;;;;;4.93;2.90;;;9.30;99.90;;;;;;5017491;28;20646;-80
2023/12/31 09:49:34;;;;;;;2.97;2.53;;;9.30;99.90;;;;;;5034699;28;20064;-81
2023/12/31 09:52:07;;;;;;;3.63;2.70;;;9.40;99.90;;;;;;5017908;28;20149;-81
2023/12/31 09:54:34;;;;;;;4.57;2.70;;;9.40;99.90;;;;;;5034970;28;20569;-80
2023/12/31 09:57:01;;;;;;;3.87;2.80;;;9.40;99.90;;;;;;5028514;28;20609;-80
2023/12/31 09:59:28;;;;;;;3.50;3.20;;;9.40;99.90;;;;;;5034635;28;20109;-80
2023/12/31 10:02:07;;;;;;;3.93;2.73;;;9.40;99.90;;;;;;5036242;28;20042;-77
2023/12/31 10:04:33;;;;;;;3.80;3.10;;;9.40;99.90;;;;;;5033100;28;20576;-80
2023/12/31 10:06:59;;;;;;;3.53;3.00;;;9.40;99.90;;;;;;5023155;28;20041;-80
2023/12/31 10:09:33;;;;;;;4.80;3.33;;;9.50;99.90;;;;;;5021235;28;20065;-81
2023/12/31 10:12:00;;;;;;;3.43;2.97;;;9.50;99.90;;;;;;5048118;28;20049;-80
2023/12/31 10:14:26;;;;;;;4.37;3.10;;;9.50;99.90;;;;;;5032930;28;20574;-81
2023/12/31 10:16:52;;;;;;;3.93;3.10;;;9.60;99.90;;;;;;5036094;28;20064;-81
2023/12/31 10:19:18;;;;;;;3.77;3.40;;;9.60;99.90;;;;;;5021828;28;20085;-80
2023/12/31 10:21:43;;;;;;;3.30;3.00;;;9.70;99.90;;;;;;5017680;28;20052;-80
2023/12/31 10:24:10;;;;;;;4.10;3.30;;;9.70;99.90;;;;;;5012232;28;20101;-78
2023/12/31 10:26:36;;;;;;;4.27;3.20;;;9.70;99.90;;;;;;5014609;28;20060;-80
2023/12/31 10:29:05;;;;;;;3.37;3.07;;;9.70;99.90;;;;;;5028610;28;20156;-79
2023/12/31 10:31:32;;;;;;;4.50;3.40;;;9.80;99.90;;;;;;5031251;28;20045;-80
2023/12/31 10:34:15;;;;;;;3.60;3.10;;;9.80;99.90;;;;;;5035653;28;20049;-79
2023/12/31 10:36:41;;;;;;;4.77;3.40;;;9.90;99.90;;;;;;5011441;28;20077;-80
2023/12/31 10:39:08;;;;;;;4.33;3.13;;;9.90;99.90;;;;;;5034175;28;20057;-80
2023/12/31 10:41:37;;;;;;;4.30;3.10;;;9.80;99.90;;;;;;5033717;28;20041;-80
2023/12/31 10:44:11;;;;;;;3.40;3.03;;;9.90;99.90;;;;;;5040976;28;20049;-79
2023/12/31 10:46:41;;;;;;;4.87;3.00;;;9.90;99.90;;;;;;5033514;28;20042;-80
2023/12/31 10:49:11;;;;;;;3.87;3.00;;;10.00;99.90;;;;;;5023222;28;20050;-79
2023/12/31 10:51:44;;;;;;;4.53;3.70;;;10.10;99.90;;;;;;5037659;28;20513;-79
2023/12/31 10:54:20;;;;;;;5.27;3.40;;;10.20;99.90;;;;;;5045130;28;20110;-79
2023/12/31 10:56:46;;;;;;;4.77;3.20;;;10.20;99.90;;;;;;5044564;28;20049;-80
2023/12/31 10:59:13;;;;;;;3.97;3.50;;;10.30;99.90;;;;;;5045848;28;20495;-80
2023/12/31 11:01:40;;;;;;;3.80;3.43;;;10.30;99.90;;;;;;5015604;28;20519;-79
2023/12/31 11:04:07;;;;;;;3.40;3.10;;;10.30;99.90;;;;;;5027454;28;20088;-79
2023/12/31 11:06:34;;;;;;;3.77;3.13;;;10.30;99.90;;;;;;5022079;28;20503;-79
2023/12/31 11:09:00;;;;;;;6.03;3.57;;;10.20;99.90;;;;;;5032654;28;20045;-79
2023/12/31 11:11:26;;;;;;;5.70;4.03;;;10.20;99.90;;;;;;5021997;28;20044;-79
2023/12/31 11:13:55;;;;;;;4.90;3.60;;;10.10;99.90;;;;;;5033023;28;20080;-78
2023/12/31 11:16:37;;;;;;;3.73;3.30;;;10.10;99.90;;;;;;5038729;28;20053;-79
2023/12/31 11:19:21;;;;;;;5.00;3.50;;;10.10;99.90;;;;;;5006156;28;20103;-80
2023/12/31 11:22:01;;;;;;;4.67;3.87;;;10.00;99.90;;;;;;5046651;28;20107;-79
2023/12/31 11:24:27;;;;;;;4.47;3.67;;;10.00;99.90;;;;;;5021140;28;20041;-80
2023/12/31 11:27:15;;;;;;;5.57;3.80;;;9.90;99.90;;;;;;5034939;28;20053;-79
2023/12/31 11:29:41;;;;;;;5.50;3.87;;;10.00;99.90;;;;;;5010112;28;20653;-80
2023/12/31 11:32:08;;;;;;;4.57;3.90;;;9.90;99.90;;;;;;5046661;28;20049;-80
2023/12/31 11:34:39;;;;;;;5.00;3.77;;;9.80;99.90;;;;;;5017504;28;20041;-79
2023/12/31 11:37:08;;;;;;;3.93;3.53;;;9.70;99.90;;;;;;5038279;28;20042;-79
2023/12/31 11:39:34;;;;;;;4.43;3.80;;;9.70;99.90;;;;;;5034511;28;20030;-78
2023/12/31 11:42:11;;;;;;;4.40;3.80;;;9.70;99.90;;;;;;5041114;28;20531;-78
2023/12/31 11:44:41;;;;;;;5.03;3.23;;;9.70;99.90;;;;;;5045415;28;20132;-79
2023/12/31 11:47:21;;;;;;;4.07;3.27;;;9.70;99.90;;;;;;5032237;28;20053;-77
2023/12/31 11:49:51;;;;;;;4.03;3.03;;;9.80;99.90;;;;;;5048986;28;20071;-79
2023/12/31 11:52:31;;;;;;;3.80;3.13;;;9.80;99.90;;;;;;5037403;28;20033;-79
2023/12/31 11:55:01;;;;;;;3.77;3.20;;;9.80;99.90;;;;;;5041452;28;20047;-79
2023/12/31 11:57:27;;;;;;;4.30;3.20;;;9.80;99.90;;;;;;5045860;28;20033;-79
2023/12/31 11:59:54;;;;;;;4.47;2.87;;;9.80;99.90;;;;;;5033790;28;20052;-79
2023/12/31 12:02:21;;;;;;;1.23;1.13;;;9.80;99.90;;;;;;5035050;28;20045;-79
2023/12/31 12:04:47;;;;;;;2.00;1.43;;;9.50;99.90;;;;;;5034086;28;20049;-78
2023/12/31 12:07:13;;;;;;;2.43;1.80;;;9.20;99.90;;;;;;5055230;28;20122;-78
2023/12/31 12:09:39;;;;;;;1.70;1.40;;;8.90;99.90;;;;;;5016942;28;20464;-78
2023/12/31 12:12:08;;;;;;;3.63;2.07;;;8.90;99.90;;;;;;5040389;28;20052;-78
2023/12/31 12:14:34;;;;;;;2.73;2.07;;;8.70;99.90;;;;;;5021940;28;20038;-78
2023/12/31 12:17:02;;;;;;;3.17;2.03;;;8.60;99.90;;;;;;5039550;28;20056;-79
2023/12/31 12:19:31;;;;;;;2.50;1.60;;;8.50;99.90;;;;;;5021913;28;20608;-79
2023/12/31 12:21:57;;;;;;;1.73;1.20;;;8.40;99.90;;;;;;5030209;28;20029;-79
2023/12/31 12:24:23;;;;;;;1.60;0.90;;;8.40;99.90;;;;;;5053845;28;20045;-79
2023/12/31 12:26:50;;;;;;;1.97;1.00;;;8.30;99.90;;;;;;5037725;28;20057;-78
2023/12/31 12:29:16;;;;;;;2.33;1.33;;;8.30;99.90;;;;;;5033444;28;20049;-79
2023/12/31 12:31:51;;;;;;;1.23;0.80;;;8.30;99.90;;;;;;5040021;28;20052;-79
2023/12/31 12:34:20;;;;;;;1.67;0.80;;;8.20;99.90;;;;;;5020167;28;20069;-79
2023/12/31 12:36:49;;;;;;;1.20;0.70;;;8.10;99.90;;;;;;5031585;28;20587;-78
2023/12/31 12:39:16;;;;;;;0.70;0.70;;;8.10;99.90;;;;;;5049724;28;20123;-78
2023/12/31 12:41:49;;;;;;;0.93;0.80;;;8.20;99.90;;;;;;5040495;28;20053;-78
2023/12/31 12:44:15;;;;;;;1.07;0.70;;;8.30;99.90;;;;;;5022048;28;20056;-78
2023/12/31 12:46:42;;;;;;;1.43;0.80;;;8.30;99.90;;;;;;5041733;28;20543;-78
2023/12/31 12:49:10;;;;;;;1.50;0.90;;;8.40;99.90;;;;;;5037626;28;20059;-79
2023/12/31 12:51:36;;;;;;;0.90;0.80;;;8.40;99.90;;;;;;5036933;28;20051;-79
2023/12/31 12:54:02;;;;;;;3.37;1.20;;;8.40;99.90;;;;;;5012335;28;20072;-78